createdAt,value
2023-05-15T00:00:26.028Z,0.52
2023-05-15T00:01:26.021Z,0.51
2023-05-15T00:02:26.109Z,0.52
2023-05-15T00:03:26.071Z,0.50
2023-05-15T00:04:26.000Z,0.52
2023-05-15T00:05:26.336Z,0.52
2023-05-15T00:06:26.002Z,0.52
2023-05-15T00:07:25.984Z,0.51
2023-05-15T00:08:25.979Z,0.52
2023-05-15T00:09:25.937Z,0.52
2023-05-15T00:10:25.946Z,0.53
2023-05-15T00:11:25.912Z,0.53
2023-05-15T00:12:25.923Z,0.51
2023-05-15T00:13:25.926Z,0.51
2023-05-15T00:14:25.918Z,0.53
2023-05-15T00:15:26.169Z,0.53
2023-05-15T00:16:25.950Z,0.52
2023-05-15T00:17:25.890Z,0.52
2023-05-15T00:18:25.933Z,0.51
2023-05-15T00:19:25.864Z,0.52
2023-05-15T00:20:25.879Z,0.51
2023-05-15T00:21:25.846Z,0.51
2023-05-15T00:22:25.883Z,0.51
2023-05-15T00:23:25.853Z,0.51
2023-05-15T00:24:25.874Z,0.52
2023-05-15T00:25:26.077Z,0.52
2023-05-15T00:26:25.844Z,0.52
2023-05-15T00:27:25.822Z,0.52
2023-05-15T00:28:25.865Z,0.52
2023-05-15T00:29:25.803Z,0.52
2023-05-15T00:30:25.800Z,0.51
2023-05-15T00:31:25.834Z,0.52
2023-05-15T00:32:25.800Z,0.52
2023-05-15T00:33:25.798Z,0.53
2023-05-15T00:34:25.796Z,0.52
2023-05-15T00:35:26.335Z,0.52
2023-05-15T00:36:25.798Z,0.52
2023-05-15T00:37:25.773Z,0.51
2023-05-15T00:38:25.718Z,0.52
2023-05-15T00:39:25.735Z,0.52
2023-05-15T00:40:26.126Z,0.51
2023-05-15T00:41:25.706Z,0.52
2023-05-15T00:42:25.723Z,0.53
2023-05-15T00:43:25.737Z,0.52
2023-05-15T00:44:25.708Z,0.52
2023-05-15T00:45:25.933Z,0.51
2023-05-15T00:46:25.711Z,0.51
2023-05-15T00:47:25.737Z,0.51
2023-05-15T00:48:25.691Z,0.52
2023-05-15T00:49:25.694Z,0.52
2023-05-15T00:50:26.108Z,0.52
2023-05-15T00:51:25.775Z,0.51
2023-05-15T00:52:25.649Z,0.52
2023-05-15T00:53:25.749Z,0.52
2023-05-15T00:54:25.623Z,0.52
2023-05-15T00:55:25.827Z,0.51
2023-05-15T00:56:25.611Z,0.51
2023-05-15T00:57:25.617Z,0.52
2023-05-15T00:58:25.601Z,0.52
2023-05-15T00:59:25.601Z,0.52
2023-05-15T01:00:25.611Z,0.52
2023-05-15T01:01:25.705Z,0.52
2023-05-15T01:02:25.642Z,0.52
2023-05-15T01:03:25.572Z,0.53
2023-05-15T01:04:25.563Z,0.52
2023-05-15T01:05:25.837Z,0.52
2023-05-15T01:06:25.637Z,0.51
2023-05-15T01:07:25.522Z,0.52
2023-05-15T01:08:25.573Z,0.52
2023-05-15T01:09:25.528Z,0.51
2023-05-15T01:10:25.538Z,0.52
2023-05-15T01:11:25.539Z,0.52
2023-05-15T01:12:25.488Z,0.51
2023-05-15T01:13:25.476Z,0.52
2023-05-15T01:14:25.489Z,0.52
2023-05-15T01:15:25.818Z,0.52
2023-05-15T01:16:25.473Z,0.51
2023-05-15T01:17:25.485Z,0.52
2023-05-15T01:18:25.647Z,0.53
2023-05-15T01:19:25.604Z,0.53
2023-05-15T01:20:25.425Z,0.52
2023-05-15T01:21:25.656Z,0.52
2023-05-15T01:22:25.509Z,0.52
2023-05-15T01:23:25.470Z,0.52
2023-05-15T01:24:25.459Z,0.52
2023-05-15T01:25:25.576Z,0.51
2023-05-15T01:26:25.681Z,0.52
2023-05-15T01:27:25.391Z,0.51
2023-05-15T01:28:25.401Z,0.51
2023-05-15T01:29:25.381Z,0.52
2023-05-15T01:30:25.355Z,0.52
2023-05-15T01:31:25.394Z,0.53
2023-05-15T01:32:25.398Z,0.53
2023-05-15T01:33:25.339Z,0.52
2023-05-15T01:34:25.399Z,0.52
2023-05-15T01:35:25.542Z,0.52
2023-05-15T01:36:25.702Z,0.52
2023-05-15T01:37:25.286Z,0.52
2023-05-15T01:38:25.354Z,0.52
2023-05-15T01:39:25.329Z,0.51
2023-05-15T01:40:25.276Z,0.52
2023-05-15T01:41:25.327Z,0.52
2023-05-15T01:42:25.285Z,0.52
2023-05-15T01:43:25.300Z,0.53
2023-05-15T01:44:25.304Z,0.52
2023-05-15T01:45:25.534Z,0.51
2023-05-15T01:46:25.728Z,0.50
2023-05-15T01:47:25.286Z,0.51
2023-05-15T01:48:25.227Z,0.51
2023-05-15T01:49:25.272Z,0.52
2023-05-15T01:50:25.297Z,0.52
2023-05-15T01:51:25.302Z,0.52
2023-05-15T01:52:25.300Z,0.53
2023-05-15T01:53:25.350Z,0.53
2023-05-15T01:54:25.326Z,0.53
2023-05-15T01:55:25.564Z,0.53
2023-05-15T01:56:25.365Z,0.52
2023-05-15T01:57:25.347Z,0.52
2023-05-15T01:58:25.402Z,0.52
2023-05-15T01:59:25.381Z,0.52
2023-05-15T02:00:25.425Z,0.53
2023-05-15T02:01:25.470Z,0.52
2023-05-15T02:02:25.486Z,0.53
2023-05-15T02:03:25.574Z,0.52
2023-05-15T02:04:25.450Z,0.53
2023-05-15T02:05:25.717Z,0.53
2023-05-15T02:06:25.471Z,0.53
2023-05-15T02:07:25.456Z,0.53
2023-05-15T02:08:25.480Z,0.52
2023-05-15T02:09:25.548Z,0.52
2023-05-15T02:10:25.513Z,0.52
2023-05-15T02:11:25.511Z,0.52
2023-05-15T02:12:25.575Z,0.52
2023-05-15T02:13:25.549Z,0.52
2023-05-15T02:14:25.537Z,0.50
2023-05-15T02:15:25.805Z,0.51
2023-05-15T02:16:25.739Z,0.52
2023-05-15T02:17:25.587Z,0.51
2023-05-15T02:18:25.601Z,0.51
2023-05-15T02:19:25.629Z,0.51
2023-05-15T02:20:25.633Z,0.52
2023-05-15T02:21:25.616Z,0.52
2023-05-15T02:22:25.651Z,0.52
2023-05-15T02:23:25.643Z,0.51
2023-05-15T02:24:25.651Z,0.51
2023-05-15T02:25:25.895Z,0.50
2023-05-15T02:26:26.182Z,0.51
2023-05-15T02:27:25.674Z,0.51
2023-05-15T02:28:25.683Z,0.52
2023-05-15T02:29:25.708Z,0.52
2023-05-15T02:30:25.709Z,0.52
2023-05-15T02:31:25.721Z,0.53
2023-05-15T02:32:25.732Z,0.53
2023-05-15T02:33:25.714Z,0.52
2023-05-15T02:34:25.752Z,0.52
2023-05-15T02:35:26.056Z,0.51
2023-05-15T02:36:25.789Z,0.52
2023-05-15T02:37:25.764Z,0.53
2023-05-15T02:38:25.775Z,0.51
2023-05-15T02:39:25.808Z,0.52
2023-05-15T02:40:25.824Z,0.51
2023-05-15T02:41:25.834Z,0.52
2023-05-15T02:42:25.827Z,0.52
2023-05-15T02:43:25.818Z,0.51
2023-05-15T02:44:25.851Z,0.53
2023-05-15T02:45:26.171Z,0.53
2023-05-15T02:46:25.932Z,0.53
2023-05-15T02:47:25.918Z,0.52
2023-05-15T02:48:25.855Z,0.53
2023-05-15T02:49:25.878Z,0.52
2023-05-15T02:50:25.890Z,0.52
2023-05-15T02:51:25.938Z,0.52
2023-05-15T02:52:25.889Z,0.53
2023-05-15T02:53:25.938Z,0.52
2023-05-15T02:54:25.933Z,0.52
2023-05-15T02:55:26.180Z,0.53
2023-05-15T02:56:25.986Z,0.53
2023-05-15T02:57:25.965Z,0.51
2023-05-15T02:58:25.970Z,0.52
2023-05-15T02:59:26.049Z,0.53
2023-05-15T03:00:25.988Z,0.53
2023-05-15T03:01:26.045Z,0.52
2023-05-15T03:02:26.022Z,0.53
2023-05-15T03:03:26.034Z,0.53
2023-05-15T03:04:26.036Z,0.52
2023-05-15T03:05:26.429Z,0.53
2023-05-15T03:06:26.209Z,0.53
2023-05-15T03:07:26.030Z,0.54
2023-05-15T03:08:26.057Z,0.53
2023-05-15T03:09:26.115Z,0.53
2023-05-15T03:10:26.065Z,0.53
2023-05-15T03:11:26.070Z,0.53
2023-05-15T03:12:26.124Z,0.53
2023-05-15T03:13:26.114Z,0.53
2023-05-15T03:14:26.146Z,0.52
2023-05-15T03:15:26.443Z,0.53
2023-05-15T03:16:26.175Z,0.53
2023-05-15T03:17:26.189Z,0.52
2023-05-15T03:18:26.206Z,0.53
2023-05-15T03:19:26.191Z,0.51
2023-05-15T03:20:26.237Z,0.52
2023-05-15T03:21:26.250Z,0.52
2023-05-15T03:22:26.248Z,0.52
2023-05-15T03:23:26.252Z,0.51
2023-05-15T03:24:26.241Z,0.52
2023-05-15T03:25:26.513Z,0.52
2023-05-15T03:26:26.282Z,0.51
2023-05-15T03:27:26.258Z,0.50
2023-05-15T03:28:26.304Z,0.52
2023-05-15T03:29:26.303Z,0.53
2023-05-15T03:30:26.298Z,0.51
2023-05-15T03:31:26.362Z,0.52
2023-05-15T03:32:26.351Z,0.51
2023-05-15T03:33:26.332Z,0.52
2023-05-15T03:34:26.380Z,0.51
2023-05-15T03:35:26.604Z,0.51
2023-05-15T03:36:26.399Z,0.51
2023-05-15T03:37:26.354Z,0.51
2023-05-15T03:38:26.406Z,0.52
2023-05-15T03:39:26.415Z,0.51
2023-05-15T03:40:26.380Z,0.52
2023-05-15T03:41:26.752Z,0.51
2023-05-15T03:42:26.433Z,0.51
2023-05-15T03:43:26.444Z,0.53
2023-05-15T03:44:26.515Z,0.52
2023-05-15T03:45:26.750Z,0.51
2023-05-15T03:46:26.555Z,0.51
2023-05-15T03:47:26.594Z,0.51
2023-05-15T03:48:26.509Z,0.51
2023-05-15T03:49:26.511Z,0.51
2023-05-15T03:50:26.536Z,0.51
2023-05-15T03:51:26.551Z,0.52
2023-05-15T03:52:26.564Z,0.52
2023-05-15T03:53:26.529Z,0.52
2023-05-15T03:54:26.633Z,0.52
2023-05-15T03:55:26.805Z,0.52
2023-05-15T03:56:26.632Z,0.52
2023-05-15T03:57:26.592Z,0.52
2023-05-15T03:58:26.659Z,0.51
2023-05-15T03:59:26.657Z,0.51
2023-05-15T04:00:26.885Z,0.51
2023-05-15T04:01:26.785Z,0.51
2023-05-15T04:02:26.790Z,0.51
2023-05-15T04:03:26.801Z,0.51
2023-05-15T04:04:26.727Z,0.51
2023-05-15T04:05:27.016Z,0.51
2023-05-15T04:06:26.803Z,0.51
2023-05-15T04:07:26.819Z,0.51
2023-05-15T04:08:26.817Z,0.51
2023-05-15T04:09:26.830Z,0.51
2023-05-15T04:10:26.913Z,0.51
2023-05-15T04:11:26.849Z,0.52
2023-05-15T04:12:26.901Z,0.52
2023-05-15T04:13:26.877Z,0.51
2023-05-15T04:14:26.883Z,0.51
2023-05-15T04:15:27.076Z,0.51
2023-05-15T04:16:27.057Z,0.52
2023-05-15T04:17:26.957Z,0.51
2023-05-15T04:18:27.800Z,0.51
2023-05-15T04:19:26.983Z,0.51
2023-05-15T04:20:27.006Z,0.51
2023-05-15T04:21:27.066Z,0.51
2023-05-15T04:22:27.047Z,0.52
2023-05-15T04:23:27.060Z,0.52
2023-05-15T04:24:27.075Z,0.52
2023-05-15T04:25:27.282Z,0.51
2023-05-15T04:26:27.282Z,0.51
2023-05-15T04:27:27.100Z,0.51
2023-05-15T04:28:28.621Z,0.51
2023-05-15T04:29:27.079Z,0.51
2023-05-15T04:30:27.181Z,0.52
2023-05-15T04:31:27.230Z,0.51
2023-05-15T04:32:27.149Z,0.51
2023-05-15T04:33:27.194Z,0.52
2023-05-15T04:34:27.186Z,0.51
2023-05-15T04:35:27.422Z,0.51
2023-05-15T04:36:27.238Z,0.50
2023-05-15T04:37:27.203Z,0.51
2023-05-15T04:38:27.225Z,0.50
2023-05-15T04:39:27.232Z,0.52
2023-05-15T04:40:27.311Z,0.52
2023-05-15T04:41:27.290Z,0.52
2023-05-15T04:42:27.309Z,0.52
2023-05-15T04:43:27.318Z,0.51
2023-05-15T04:44:27.315Z,0.51
2023-05-15T04:45:27.355Z,0.51
2023-05-15T04:46:27.353Z,0.51
2023-05-15T04:47:27.464Z,0.51
2023-05-15T04:48:27.385Z,0.51
2023-05-15T04:49:27.400Z,0.51
2023-05-15T04:50:27.459Z,0.51
2023-05-15T04:51:27.424Z,0.51
2023-05-15T04:52:27.471Z,0.50
2023-05-15T04:53:27.525Z,0.52
2023-05-15T04:54:27.457Z,0.51
2023-05-15T04:55:27.615Z,0.52
2023-05-15T04:56:27.759Z,0.51
2023-05-15T04:57:27.551Z,0.51
2023-05-15T04:58:27.583Z,0.51
2023-05-15T04:59:27.557Z,0.51
2023-05-15T05:00:27.629Z,0.51
2023-05-15T05:01:27.629Z,0.51
2023-05-15T05:02:27.658Z,0.51
2023-05-15T05:03:27.719Z,0.50
2023-05-15T05:04:27.643Z,0.52
2023-05-15T05:05:27.713Z,0.53
2023-05-15T05:06:29.225Z,0.53
2023-05-15T05:07:27.928Z,0.53
2023-05-15T05:08:27.920Z,0.53
2023-05-15T05:09:27.977Z,0.53
2023-05-15T05:10:27.993Z,0.53
2023-05-15T05:11:28.273Z,0.53
2023-05-15T05:12:28.164Z,0.53
2023-05-15T05:13:28.091Z,0.53
2023-05-15T05:14:28.163Z,0.53
2023-05-15T05:15:28.236Z,0.52
2023-05-15T05:16:28.222Z,0.54
2023-05-15T05:17:28.199Z,0.53
2023-05-15T05:18:28.215Z,0.53
2023-05-15T05:19:28.242Z,0.53
2023-05-15T05:20:28.209Z,0.52
2023-05-15T05:21:28.246Z,0.52
2023-05-15T05:22:28.318Z,0.53
2023-05-15T05:23:28.301Z,0.52
2023-05-15T05:24:28.345Z,0.52
2023-05-15T05:25:28.328Z,0.52
2023-05-15T05:26:28.334Z,0.53
2023-05-15T05:27:28.797Z,0.52
2023-05-15T05:28:28.376Z,0.52
2023-05-15T05:29:28.437Z,0.52
2023-05-15T05:30:28.423Z,0.52
2023-05-15T05:31:28.491Z,0.52
2023-05-15T05:32:28.504Z,0.51
2023-05-15T05:33:28.489Z,0.52
2023-05-15T05:34:28.520Z,0.52
2023-05-15T05:35:28.543Z,0.53
2023-05-15T05:36:28.566Z,0.52
2023-05-15T05:37:28.575Z,0.53
2023-05-15T05:38:28.602Z,0.52
2023-05-15T05:39:28.657Z,0.51
2023-05-15T05:40:28.649Z,0.52
2023-05-15T05:41:28.705Z,0.53
2023-05-15T05:42:28.706Z,0.53
2023-05-15T05:43:28.715Z,0.53
2023-05-15T05:44:28.752Z,0.53
2023-05-15T05:45:28.756Z,0.53
2023-05-15T05:46:28.792Z,0.52
2023-05-15T05:47:29.332Z,0.53
2023-05-15T05:48:28.833Z,0.54
2023-05-15T05:49:28.849Z,0.52
2023-05-15T05:50:28.859Z,0.53
2023-05-15T05:51:28.898Z,0.53
2023-05-15T05:52:29.266Z,0.53
2023-05-15T05:53:28.969Z,0.53
2023-05-15T05:54:28.911Z,0.53
2023-05-15T05:55:28.958Z,0.52
2023-05-15T05:56:28.956Z,0.52
2023-05-15T05:57:29.009Z,0.52
2023-05-15T05:58:29.061Z,0.52
2023-05-15T05:59:29.027Z,0.52
2023-05-15T06:00:29.106Z,0.53
2023-05-15T06:01:29.116Z,0.55
2023-05-15T06:02:29.190Z,0.55
2023-05-15T06:03:29.266Z,0.56
2023-05-15T06:04:29.233Z,0.56
2023-05-15T06:05:29.169Z,0.58
2023-05-15T06:06:29.165Z,0.61
2023-05-15T06:07:29.281Z,0.58
2023-05-15T06:08:29.222Z,0.61
2023-05-15T06:09:29.230Z,0.61
2023-05-15T06:10:29.267Z,0.64
2023-05-15T06:11:29.238Z,0.65
2023-05-15T06:12:29.243Z,0.65
2023-05-15T06:13:29.242Z,0.64
2023-05-15T06:14:29.288Z,0.66
2023-05-15T06:15:29.314Z,0.66
2023-05-15T06:16:29.413Z,0.66
2023-05-15T06:17:29.372Z,0.70
2023-05-15T06:18:29.356Z,0.73
2023-05-15T06:19:29.330Z,0.76
2023-05-15T06:20:29.359Z,0.77
2023-05-15T06:21:29.351Z,0.78
2023-05-15T06:22:29.348Z,0.79
2023-05-15T06:23:29.318Z,0.77
2023-05-15T06:24:29.327Z,0.81
2023-05-15T06:25:29.332Z,0.83
2023-05-15T06:26:29.310Z,0.80
2023-05-15T06:27:29.354Z,0.83
2023-05-15T06:28:29.335Z,0.80
2023-05-15T06:29:29.307Z,0.86
2023-05-15T06:30:29.384Z,0.88
2023-05-15T06:31:29.384Z,0.90
2023-05-15T06:32:29.380Z,0.88
2023-05-15T06:33:29.355Z,0.90
2023-05-15T06:34:29.367Z,0.95
2023-05-15T06:35:29.366Z,1.00
2023-05-15T06:36:29.386Z,1.00
2023-05-15T06:37:29.391Z,1.01
2023-05-15T06:38:29.463Z,1.07
2023-05-15T06:39:29.397Z,1.02
2023-05-15T06:40:29.465Z,1.04
2023-05-15T06:41:29.446Z,1.03
2023-05-15T06:42:29.429Z,1.00
2023-05-15T06:43:29.456Z,1.04
2023-05-15T06:44:29.454Z,1.05
2023-05-15T06:45:29.631Z,1.07
2023-05-15T06:46:29.584Z,1.06
2023-05-15T06:47:29.757Z,1.10
2023-05-15T06:48:29.653Z,1.10
2023-05-15T06:49:29.676Z,1.13
2023-05-15T06:50:29.671Z,1.13
2023-05-15T06:51:29.740Z,1.17
2023-05-15T06:52:29.838Z,1.13
2023-05-15T06:53:29.953Z,1.09
2023-05-15T06:54:29.933Z,1.12
2023-05-15T06:55:29.989Z,1.15
2023-05-15T06:56:30.028Z,1.14
2023-05-15T06:57:30.069Z,1.16
2023-05-15T06:58:30.117Z,1.21
2023-05-15T06:59:30.123Z,1.18
2023-05-15T07:00:30.178Z,1.22
2023-05-15T07:01:30.257Z,1.22
2023-05-15T07:02:30.312Z,1.22
2023-05-15T07:03:30.338Z,1.23
2023-05-15T07:04:30.459Z,1.20
2023-05-15T07:05:30.469Z,1.21
2023-05-15T07:06:30.528Z,1.24
2023-05-15T07:07:30.584Z,1.27
2023-05-15T07:08:30.603Z,1.32
2023-05-15T07:09:30.667Z,1.27
2023-05-15T07:10:30.719Z,1.32
2023-05-15T07:11:30.819Z,1.32
2023-05-15T07:12:30.875Z,1.30
2023-05-15T07:13:30.920Z,1.29
2023-05-15T07:14:31.000Z,1.33
2023-05-15T07:15:31.090Z,1.35
2023-05-15T07:16:31.078Z,1.33
2023-05-15T07:17:31.477Z,1.34
2023-05-15T07:18:31.331Z,1.32
2023-05-15T07:19:31.243Z,1.33
2023-05-15T07:20:33.559Z,1.38
2023-05-15T07:21:31.276Z,1.44
2023-05-15T07:22:32.771Z,1.42
2023-05-15T07:23:31.269Z,1.42
2023-05-15T07:24:31.282Z,1.42
2023-05-15T07:25:31.277Z,1.42
2023-05-15T07:26:38.389Z,1.41
2023-05-15T07:27:32.245Z,1.42
2023-05-15T07:28:31.250Z,1.42
2023-05-15T07:29:31.227Z,1.43
2023-05-15T07:30:31.247Z,1.46
2023-05-15T07:31:31.349Z,1.47
2023-05-15T07:32:31.253Z,1.51
2023-05-15T07:33:31.227Z,1.50
2023-05-15T07:34:31.197Z,1.46
2023-05-15T07:35:31.240Z,1.50
2023-05-15T07:36:31.188Z,1.54
2023-05-15T07:37:31.183Z,1.54
2023-05-15T07:38:31.180Z,1.55
2023-05-15T07:39:31.245Z,1.57
2023-05-15T07:40:31.276Z,1.63
2023-05-15T07:41:31.428Z,1.64
2023-05-15T07:42:31.340Z,1.63
2023-05-15T07:43:31.398Z,1.60
2023-05-15T07:44:31.420Z,1.59
2023-05-15T07:45:31.538Z,1.59
2023-05-15T07:46:31.551Z,1.60
2023-05-15T07:47:31.915Z,1.62
2023-05-15T07:48:31.590Z,1.64
2023-05-15T07:49:31.681Z,1.65
2023-05-15T07:50:31.697Z,1.50
2023-05-15T07:51:31.758Z,1.49
2023-05-15T07:52:31.808Z,1.59
2023-05-15T07:53:31.994Z,1.54
2023-05-15T07:54:31.980Z,1.56
2023-05-15T07:55:31.923Z,1.58
2023-05-15T07:56:32.002Z,1.56
2023-05-15T07:57:32.036Z,1.52
2023-05-15T07:58:32.072Z,1.46
2023-05-15T07:59:32.170Z,1.53
2023-05-15T08:00:32.168Z,1.55
2023-05-15T08:01:32.890Z,1.56
2023-05-15T08:02:32.296Z,1.61
2023-05-15T08:03:32.402Z,1.62
2023-05-15T08:04:32.320Z,1.60
2023-05-15T08:05:32.377Z,1.63
2023-05-15T08:06:32.438Z,1.61
2023-05-15T08:07:32.839Z,1.61
2023-05-15T08:08:32.514Z,1.63
2023-05-15T08:09:32.573Z,1.66
2023-05-15T08:10:32.627Z,1.64
2023-05-15T08:11:32.677Z,1.64
2023-05-15T08:12:32.872Z,1.63
2023-05-15T08:13:32.788Z,1.63
2023-05-15T08:14:32.871Z,1.60
2023-05-15T08:15:32.965Z,1.60
2023-05-15T08:16:33.013Z,1.64
2023-05-15T08:17:33.358Z,1.59
2023-05-15T08:18:33.110Z,1.58
2023-05-15T08:19:33.121Z,1.58
2023-05-15T08:20:33.156Z,1.60
2023-05-15T08:21:33.272Z,1.58
2023-05-15T08:22:33.285Z,1.57
2023-05-15T08:23:33.364Z,1.59
2023-05-15T08:24:33.443Z,1.57
2023-05-15T08:25:33.493Z,1.55
2023-05-15T08:26:33.528Z,1.54
2023-05-15T08:27:33.854Z,1.54
2023-05-15T08:28:33.694Z,1.52
2023-05-15T08:29:33.726Z,1.52
2023-05-15T08:30:33.801Z,1.50
2023-05-15T08:31:33.856Z,1.51
2023-05-15T08:32:33.968Z,1.48
2023-05-15T08:33:33.935Z,1.51
2023-05-15T08:34:34.063Z,1.48
2023-05-15T08:35:34.068Z,1.48
2023-05-15T08:36:34.139Z,1.50
2023-05-15T08:37:34.502Z,1.49
2023-05-15T08:38:34.252Z,1.48
2023-05-15T08:39:34.295Z,1.47
2023-05-15T08:40:39.135Z,1.47
2023-05-15T08:42:34.567Z,1.47
2023-05-15T08:43:34.331Z,1.48
2023-05-15T08:44:34.306Z,1.48
2023-05-15T08:45:34.322Z,1.48
2023-05-15T08:46:34.373Z,1.48
2023-05-15T08:47:34.364Z,1.46
2023-05-15T08:48:34.355Z,1.50
2023-05-15T08:49:34.316Z,1.47
2023-05-15T08:50:34.296Z,1.51
2023-05-15T08:51:34.274Z,1.50
2023-05-15T08:52:34.296Z,1.49
2023-05-15T08:53:34.284Z,1.47
2023-05-15T08:54:34.294Z,1.46
2023-05-15T08:55:34.348Z,1.46
2023-05-15T08:56:34.458Z,1.44
2023-05-15T08:57:34.477Z,1.43
2023-05-15T08:58:34.541Z,1.41
2023-05-15T08:59:34.576Z,1.43
2023-05-15T09:00:34.680Z,1.44
2023-05-15T09:01:34.741Z,1.39
2023-05-15T09:02:34.905Z,1.41
2023-05-15T09:03:34.870Z,1.45
2023-05-15T09:04:34.876Z,1.43
2023-05-15T09:05:34.950Z,1.44
2023-05-15T09:06:35.040Z,1.44
2023-05-15T09:07:35.419Z,1.46
2023-05-15T09:08:35.114Z,1.46
2023-05-15T09:09:35.154Z,1.54
2023-05-15T09:10:35.242Z,1.52
2023-05-15T09:11:35.306Z,1.56
2023-05-15T09:12:35.334Z,1.58
2023-05-15T09:13:35.364Z,1.67
2023-05-15T09:14:35.392Z,1.70
2023-05-15T09:15:35.402Z,1.64
2023-05-15T09:16:35.470Z,1.62
2023-05-15T09:17:35.566Z,1.62
2023-05-15T09:18:35.568Z,1.66
2023-05-15T09:19:35.546Z,1.66
2023-05-15T09:20:35.667Z,2.19
2023-05-15T09:21:35.603Z,2.48
2023-05-15T09:22:35.862Z,2.39
2023-05-15T09:23:35.691Z,2.37
2023-05-15T09:24:35.749Z,2.27
2023-05-15T09:25:35.718Z,2.28
2023-05-15T09:26:35.745Z,2.18
2023-05-15T09:27:35.746Z,2.06
2023-05-15T09:28:35.766Z,2.09
2023-05-15T09:29:35.765Z,1.91
2023-05-15T09:30:35.810Z,1.84
2023-05-15T09:31:35.949Z,1.82
2023-05-15T09:32:35.866Z,1.89
2023-05-15T09:33:35.819Z,1.90
2023-05-15T09:34:35.883Z,1.93
2023-05-15T09:35:35.900Z,2.21
2023-05-15T09:36:35.871Z,1.97
2023-05-15T09:37:35.876Z,1.89
2023-05-15T09:38:35.879Z,1.88
2023-05-15T09:39:35.862Z,1.91
2023-05-15T09:40:35.920Z,1.90
2023-05-15T09:41:35.911Z,2.18
2023-05-15T09:42:36.394Z,1.90
2023-05-15T09:43:35.894Z,1.86
2023-05-15T09:44:35.900Z,1.86
2023-05-15T09:45:35.972Z,1.93
2023-05-15T09:46:36.050Z,2.06
2023-05-15T09:47:36.210Z,2.04
2023-05-15T09:48:36.511Z,2.05
2023-05-15T09:49:35.937Z,2.10
2023-05-15T09:50:35.939Z,2.14
2023-05-15T09:51:35.948Z,2.11
2023-05-15T09:52:36.004Z,2.07
2023-05-15T09:53:35.996Z,1.98
2023-05-15T09:54:35.990Z,1.95
2023-05-15T09:55:36.007Z,1.91
2023-05-15T09:56:36.099Z,1.88
2023-05-15T09:57:36.076Z,1.91
2023-05-15T09:58:36.080Z,1.91
2023-05-15T09:59:36.098Z,1.87
2023-05-15T10:00:36.127Z,1.85
2023-05-15T10:01:37.157Z,1.85
2023-05-15T10:02:36.142Z,1.82
2023-05-15T10:03:36.407Z,1.85
2023-05-15T10:04:36.108Z,1.83
2023-05-15T10:06:37.067Z,1.85
2023-05-15T10:07:36.072Z,1.83
2023-05-15T10:08:36.051Z,1.81
2023-05-15T10:09:36.070Z,1.77
2023-05-15T10:10:36.055Z,1.76
2023-05-15T10:11:36.084Z,1.71
2023-05-15T10:12:36.054Z,1.73
2023-05-15T10:13:36.068Z,1.75
2023-05-15T10:14:36.018Z,1.74
2023-05-15T10:15:36.041Z,1.74
2023-05-15T10:16:36.147Z,1.73
2023-05-15T10:17:36.094Z,1.72
2023-05-15T10:18:36.436Z,1.74
2023-05-15T10:19:44.085Z,1.74
2023-05-15T10:20:37.006Z,1.74
2023-05-15T10:21:35.985Z,1.75
2023-05-15T10:22:35.951Z,1.74
2023-05-15T10:23:35.997Z,1.70
2023-05-15T10:24:35.977Z,1.73
2023-05-15T10:25:35.939Z,1.70
2023-05-15T10:26:36.004Z,1.73
2023-05-15T10:27:35.964Z,1.68
2023-05-15T10:28:36.404Z,1.70
2023-05-15T10:29:35.923Z,1.68
2023-05-15T10:30:35.941Z,1.67
2023-05-15T10:31:35.982Z,1.69
2023-05-15T10:32:36.012Z,1.72
2023-05-15T10:33:35.899Z,1.68
2023-05-15T10:34:35.880Z,1.69
2023-05-15T10:35:35.899Z,1.67
2023-05-15T10:36:35.889Z,1.70
2023-05-15T10:37:35.845Z,1.68
2023-05-15T10:38:35.935Z,1.69
2023-05-15T10:39:35.928Z,1.68
2023-05-15T10:40:35.972Z,1.67
2023-05-15T10:41:35.875Z,1.69
2023-05-15T10:42:35.880Z,1.65
2023-05-15T10:43:35.833Z,1.66
2023-05-15T10:44:35.815Z,1.66
2023-05-15T10:45:35.839Z,1.67
2023-05-15T10:46:35.896Z,1.68
2023-05-15T10:47:35.884Z,1.71
2023-05-15T10:48:35.860Z,1.75
2023-05-15T10:49:35.897Z,1.72
2023-05-15T10:50:35.915Z,1.69
2023-05-15T10:51:35.968Z,1.80
2023-05-15T10:52:35.958Z,1.81
2023-05-15T10:53:36.433Z,1.83
2023-05-15T10:54:35.987Z,1.80
2023-05-15T10:55:36.009Z,1.81
2023-05-15T10:56:36.002Z,1.78
2023-05-15T10:57:36.039Z,1.70
2023-05-15T10:58:36.416Z,1.71
2023-05-15T10:59:36.093Z,1.76
2023-05-15T11:00:36.080Z,1.76
2023-05-15T11:01:36.221Z,1.57
2023-05-15T11:02:36.195Z,1.61
2023-05-15T11:03:47.916Z,1.67
2023-05-15T11:04:37.213Z,1.55
2023-05-15T11:05:36.175Z,1.29
2023-05-15T11:06:36.175Z,1.39
2023-05-15T11:07:36.126Z,1.47
2023-05-15T11:08:36.472Z,1.52
2023-05-15T11:09:36.189Z,1.44
2023-05-15T11:10:36.145Z,1.48
2023-05-15T11:11:36.108Z,1.49
2023-05-15T11:12:36.213Z,1.39
2023-05-15T11:13:36.442Z,1.13
2023-05-15T11:14:36.267Z,0.98
2023-05-15T11:15:36.342Z,0.93
2023-05-15T11:16:36.406Z,0.89
2023-05-15T11:17:36.364Z,0.89
2023-05-15T11:18:36.479Z,0.88
2023-05-15T11:19:36.308Z,0.94
2023-05-15T11:20:37.167Z,0.99
2023-05-15T11:21:36.320Z,1.03
2023-05-15T11:22:36.374Z,1.09
2023-05-15T11:23:36.420Z,1.10
2023-05-15T11:24:36.491Z,1.16
2023-05-15T11:25:36.506Z,1.20
2023-05-15T11:26:36.555Z,1.23
2023-05-15T11:27:36.645Z,1.31
2023-05-15T11:28:36.925Z,1.41
2023-05-15T11:29:36.729Z,1.37
2023-05-15T11:30:36.787Z,1.38
2023-05-15T11:31:36.837Z,1.46
2023-05-15T11:32:36.889Z,1.53
2023-05-15T11:33:36.828Z,1.62
2023-05-15T11:34:36.911Z,1.68
2023-05-15T11:35:36.998Z,1.72
2023-05-15T11:36:37.701Z,1.76
2023-05-15T11:37:36.927Z,1.84
2023-05-15T11:38:37.958Z,1.88
2023-05-15T11:39:36.973Z,1.85
2023-05-15T11:40:36.983Z,1.72
2023-05-15T11:41:37.013Z,1.72
2023-05-15T11:42:37.085Z,1.70
2023-05-15T11:43:37.067Z,1.67
2023-05-15T11:44:37.079Z,1.54
2023-05-15T11:45:37.091Z,1.47
2023-05-15T11:46:37.172Z,1.42
2023-05-15T11:47:37.137Z,1.46
2023-05-15T11:48:37.443Z,1.49
2023-05-15T11:49:37.149Z,1.51
2023-05-15T11:50:37.160Z,1.49
2023-05-15T11:51:37.183Z,1.49
2023-05-15T11:52:37.229Z,1.47
2023-05-15T11:53:37.200Z,1.44
2023-05-15T11:54:37.207Z,1.46
2023-05-15T11:55:37.245Z,1.45
2023-05-15T11:56:37.246Z,1.42
2023-05-15T11:57:37.328Z,1.44
2023-05-15T11:58:37.341Z,1.46
2023-05-15T11:59:37.356Z,1.53
2023-05-15T12:00:37.386Z,1.56
2023-05-15T12:01:37.401Z,1.56
2023-05-15T12:02:37.508Z,1.57
2023-05-15T12:03:37.647Z,1.58
2023-05-15T12:04:37.594Z,1.57
2023-05-15T12:05:38.844Z,1.56
2023-05-15T12:06:37.523Z,1.57
2023-05-15T12:07:37.548Z,1.57
2023-05-15T12:08:37.957Z,1.60
2023-05-15T12:09:37.514Z,1.63
2023-05-15T12:10:37.523Z,1.66
2023-05-15T12:11:37.512Z,1.66
2023-05-15T12:12:37.517Z,1.67
2023-05-15T12:13:37.988Z,1.68
2023-05-15T12:14:37.472Z,1.66
2023-05-15T12:15:37.494Z,1.66
2023-05-15T12:16:37.467Z,1.65
2023-05-15T12:17:37.522Z,1.66
2023-05-15T12:18:37.662Z,1.66
2023-05-15T12:19:37.499Z,1.67
2023-05-15T12:20:37.487Z,1.64
2023-05-15T12:21:37.964Z,1.66
2023-05-15T12:22:37.455Z,1.65
2023-05-15T12:23:37.501Z,1.66
2023-05-15T12:24:37.407Z,1.66
2023-05-15T12:25:37.457Z,1.67
2023-05-15T12:26:37.447Z,1.60
2023-05-15T12:27:37.489Z,1.57
2023-05-15T12:28:37.976Z,1.50
2023-05-15T12:29:37.529Z,1.51
2023-05-15T12:30:37.596Z,1.49
2023-05-15T12:31:37.752Z,1.50
2023-05-15T12:32:37.620Z,1.51
2023-05-15T12:33:37.678Z,1.58
2023-05-15T12:34:37.681Z,1.51
2023-05-15T12:35:37.716Z,1.52
2023-05-15T12:36:37.748Z,1.48
2023-05-15T12:37:37.807Z,1.57
2023-05-15T12:38:37.790Z,1.57
2023-05-15T12:39:37.837Z,1.45
2023-05-15T12:40:37.858Z,1.48
2023-05-15T12:41:37.897Z,1.50
2023-05-15T12:42:37.913Z,1.52
2023-05-15T12:43:37.996Z,1.57
2023-05-15T12:44:37.983Z,1.60
2023-05-15T12:45:38.150Z,1.60
2023-05-15T12:46:38.029Z,1.60
2023-05-15T12:47:38.179Z,1.58
2023-05-15T12:48:38.067Z,1.50
2023-05-15T12:49:38.087Z,1.52
2023-05-15T12:50:38.098Z,1.53
2023-05-15T12:51:38.100Z,1.53
2023-05-15T12:52:38.165Z,1.41
2023-05-15T12:53:38.136Z,1.46
2023-05-15T12:54:38.162Z,1.48
2023-05-15T12:55:38.192Z,1.47
2023-05-15T12:56:38.204Z,1.44
2023-05-15T12:57:38.215Z,1.44
2023-05-15T12:58:38.282Z,1.46
2023-05-15T12:59:38.257Z,1.46
2023-05-15T13:00:45.868Z,1.48
2023-05-15T13:01:38.319Z,1.49
2023-05-15T13:02:38.356Z,1.50
2023-05-15T13:03:38.422Z,1.52
2023-05-15T13:04:38.246Z,1.53
2023-05-15T13:05:38.242Z,1.50
2023-05-15T13:06:46.339Z,1.52
2023-05-15T13:07:39.248Z,1.52
2023-05-15T13:08:38.232Z,1.52
2023-05-15T13:09:38.237Z,1.44
2023-05-15T13:10:38.198Z,1.47
2023-05-15T13:11:39.007Z,1.43
2023-05-15T13:12:38.222Z,1.46
2023-05-15T13:13:38.192Z,1.25
2023-05-15T13:14:38.519Z,1.12
2023-05-15T13:15:38.220Z,0.98
2023-05-15T13:16:38.194Z,1.01
2023-05-15T13:17:38.189Z,1.01
2023-05-15T13:18:38.250Z,0.99
2023-05-15T13:19:38.192Z,1.02
2023-05-15T13:20:38.220Z,1.04